CheckWX is a tool to help pilots better visualize weather data.  It is not intended as a substitute for an official pre-flight weather briefing.

17:46:34 UTC

KTMB TAF
Miami Executive Airport
Miami, Florida, USA
KTMB 281729Z 2818/2918 11010KT P6SM SCT030 FM290000 09005KT P6SM SCT025 FM291400 12010KT P6SM SCT030

May-28@
18:00 UTC

May-28 @ 18:00 UTC

May-29@
00:00 UTC

May-29 @ 00:00 UTC

TAF KTMB 281729Z 2818/2918 11010KT P6SM SCT030

Expired

Wind
  • 110° at 10 KTS
Cloud Levels
  • Scattered at 3,000' AGL

May-29@
00:00 UTC

May-29 @ 00:00 UTC

May-29@
14:00 UTC

May-29 @ 14:00 UTC

FM290000 09005KT P6SM SCT025

Expired

Wind
  • 090° at 5 KTS
Cloud Levels
  • Scattered at 2,500' AGL

May-29@
14:00 UTC

May-29 @ 14:00 UTC

May-29@
18:00 UTC

May-29 @ 18:00 UTC

FM291400 12010KT P6SM SCT030

From

From Standard forecast or significant change

Wind
  • 120° at 10 KTS
Cloud Levels
  • Scattered at 3,000' AGL